sensor_id;sensor_type;location;lat;lon;timestamp;pressure;altitude;pressure_sealevel;temperature;humidity
12077;BME280;12420;42.676;23.262;2023-02-15T00:01:30;95756.47;;;3.21;100.00
12077;BME280;12420;42.676;23.262;2023-02-15T00:03:57;95769.34;;;3.52;100.00
12077;BME280;12420;42.676;23.262;2023-02-15T00:06:24;95695.22;;;2.78;100.00
12077;BME280;12420;42.676;23.262;2023-02-15T00:08:51;95777.78;;;3.36;100.00
12077;BME280;12420;42.676;23.262;2023-02-15T00:11:18;95789.53;;;3.36;100.00
12077;BME280;12420;42.676;23.262;2023-02-15T00:14:07;95778.78;;;3.51;100.00
12077;BME280;12420;42.676;23.262;2023-02-15T00:16:34;95729.44;;;2.92;100.00
12077;BME280;12420;42.676;23.262;2023-02-15T00:19:02;95788.25;;;3.28;100.00
12077;BME280;12420;42.676;23.262;2023-02-15T00:21:29;95794.31;;;3.23;100.00
12077;BME280;12420;42.676;23.262;2023-02-15T00:23:57;95784.16;;;3.23;100.00
12077;BME280;12420;42.676;23.262;2023-02-15T00:26:24;95785.81;;;3.21;100.00
12077;BME280;12420;42.676;23.262;2023-02-15T00:28:51;95781.69;;;3.16;100.00
12077;BME280;12420;42.676;23.262;2023-02-15T00:31:20;95793.59;;;3.32;100.00
12077;BME280;12420;42.676;23.262;2023-02-15T00:33:47;95785.13;;;3.39;100.00
12077;BME280;12420;42.676;23.262;2023-02-15T00:36:14;95782.66;;;3.32;100.00
12077;BME280;12420;42.676;23.262;2023-02-15T00:38:40;95757.16;;;3.03;100.00
12077;BME280;12420;42.676;23.262;2023-02-15T00:41:08;95798.91;;;3.26;100.00
12077;BME280;12420;42.676;23.262;2023-02-15T00:43:36;95787.66;;;3.24;100.00
12077;BME280;12420;42.676;23.262;2023-02-15T00:46:03;95791.09;;;3.15;100.00
12077;BME280;12420;42.676;23.262;2023-02-15T00:48:32;95717.19;;;2.66;100.00
12077;BME280;12420;42.676;23.262;2023-02-15T00:51:00;95791.44;;;3.26;100.00
12077;BME280;12420;42.676;23.262;2023-02-15T00:53:28;95784.94;;;3.33;100.00
12077;BME280;12420;42.676;23.262;2023-02-15T00:55:55;95789.06;;;3.38;100.00
12077;BME280;12420;42.676;23.262;2023-02-15T00:58:22;95667.66;;;2.64;100.00
12077;BME280;12420;42.676;23.262;2023-02-15T01:00:50;95697.25;;;2.56;100.00
12077;BME280;12420;42.676;23.262;2023-02-15T01:03:18;95785.97;;;3.26;100.00
12077;BME280;12420;42.676;23.262;2023-02-15T01:05:48;95783.91;;;3.40;100.00
12077;BME280;12420;42.676;23.262;2023-02-15T01:08:16;95793.81;;;3.56;100.00
12077;BME280;12420;42.676;23.262;2023-02-15T01:10:42;95790.19;;;3.68;100.00
12077;BME280;12420;42.676;23.262;2023-02-15T01:13:13;95707.50;;;3.14;100.00
12077;BME280;12420;42.676;23.262;2023-02-15T01:15:41;95774.06;;;3.61;100.00
12077;BME280;12420;42.676;23.262;2023-02-15T01:18:08;95786.13;;;3.73;100.00
12077;BME280;12420;42.676;23.262;2023-02-15T01:20:36;95782.16;;;3.74;100.00
12077;BME280;12420;42.676;23.262;2023-02-15T01:23:05;95776.22;;;3.75;100.00
12077;BME280;12420;42.676;23.262;2023-02-15T01:25:33;95776.53;;;3.77;100.00
12077;BME280;12420;42.676;23.262;2023-02-15T01:28:01;95780.19;;;3.74;100.00
12077;BME280;12420;42.676;23.262;2023-02-15T01:30:28;95779.88;;;3.72;100.00
12077;BME280;12420;42.676;23.262;2023-02-15T01:32:54;95778.06;;;3.69;100.00
12077;BME280;12420;42.676;23.262;2023-02-15T01:35:21;95735.38;;;3.40;100.00
12077;BME280;12420;42.676;23.262;2023-02-15T01:37:48;95707.72;;;3.29;100.00
12077;BME280;12420;42.676;23.262;2023-02-15T01:40:18;95773.66;;;3.72;100.00
12077;BME280;12420;42.676;23.262;2023-02-15T01:42:45;95734.66;;;3.49;100.00
12077;BME280;12420;42.676;23.262;2023-02-15T01:45:20;95757.63;;;3.61;100.00
12077;BME280;12420;42.676;23.262;2023-02-15T01:47:50;95743.31;;;3.47;100.00
12077;BME280;12420;42.676;23.262;2023-02-15T01:50:23;95767.09;;;3.69;100.00
12077;BME280;12420;42.676;23.262;2023-02-15T01:52:55;95770.13;;;3.71;100.00
12077;BME280;12420;42.676;23.262;2023-02-15T01:55:29;95747.31;;;3.65;100.00
12077;BME280;12420;42.676;23.262;2023-02-15T01:57:58;95752.19;;;3.70;100.00
12077;BME280;12420;42.676;23.262;2023-02-15T02:00:25;95756.91;;;3.79;100.00
12077;BME280;12420;42.676;23.262;2023-02-15T02:02:55;95756.78;;;3.82;100.00
12077;BME280;12420;42.676;23.262;2023-02-15T02:05:23;95749.75;;;3.72;100.00
12077;BME280;12420;42.676;23.262;2023-02-15T02:07:51;95698.31;;;3.39;100.00
12077;BME280;12420;42.676;23.262;2023-02-15T02:10:22;95748.25;;;3.80;100.00
12077;BME280;12420;42.676;23.262;2023-02-15T02:12:52;95749.47;;;3.79;100.00
12077;BME280;12420;42.676;23.262;2023-02-15T02:15:26;95756.63;;;3.77;100.00
12077;BME280;12420;42.676;23.262;2023-02-15T02:18:04;95727.25;;;3.59;100.00
12077;BME280;12420;42.676;23.262;2023-02-15T02:23:40;95750.69;;;3.69;100.00
12077;BME280;12420;42.676;23.262;2023-02-15T02:26:31;95764.81;;;3.67;100.00
12077;BME280;12420;42.676;23.262;2023-02-15T02:29:32;95760.97;;;3.46;100.00
12077;BME280;12420;42.676;23.262;2023-02-15T02:35:28;95801.91;;;3.19;100.00
12077;BME280;12420;42.676;23.262;2023-02-15T02:38:03;95760.50;;;3.39;100.00
12077;BME280;12420;42.676;23.262;2023-02-15T02:40:51;95760.03;;;3.40;100.00
12077;BME280;12420;42.676;23.262;2023-02-15T02:43:22;95771.44;;;3.48;100.00
12077;BME280;12420;42.676;23.262;2023-02-15T02:45:57;95756.09;;;3.41;100.00
12077;BME280;12420;42.676;23.262;2023-02-15T02:48:28;95771.13;;;3.46;100.00
12077;BME280;12420;42.676;23.262;2023-02-15T02:50:58;95764.78;;;3.58;100.00
12077;BME280;12420;42.676;23.262;2023-02-15T02:53:25;95768.31;;;3.59;100.00
12077;BME280;12420;42.676;23.262;2023-02-15T02:55:55;95747.72;;;3.45;100.00
12077;BME280;12420;42.676;23.262;2023-02-15T02:58:28;95747.53;;;3.30;100.00
12077;BME280;12420;42.676;23.262;2023-02-15T03:00:57;95748.97;;;3.03;100.00
12077;BME280;12420;42.676;23.262;2023-02-15T03:03:35;95781.59;;;3.38;100.00
12077;BME280;12420;42.676;23.262;2023-02-15T03:06:08;95735.38;;;2.91;100.00
12077;BME280;12420;42.676;23.262;2023-02-15T03:08:38;95674.38;;;2.72;100.00
12077;BME280;12420;42.676;23.262;2023-02-15T03:11:07;95789.22;;;3.43;100.00
12077;BME280;12420;42.676;23.262;2023-02-15T03:13:34;95788.88;;;3.32;100.00
12077;BME280;12420;42.676;23.262;2023-02-15T03:16:03;95738.94;;;3.10;100.00
12077;BME280;12420;42.676;23.262;2023-02-15T03:18:51;95784.72;;;3.59;100.00
12077;BME280;12420;42.676;23.262;2023-02-15T03:21:29;95787.47;;;3.68;100.00
12077;BME280;12420;42.676;23.262;2023-02-15T03:24:03;95780.03;;;3.28;100.00
12077;BME280;12420;42.676;23.262;2023-02-15T03:26:34;95785.03;;;3.20;100.00
12077;BME280;12420;42.676;23.262;2023-02-15T03:29:03;95781.81;;;3.13;100.00
12077;BME280;12420;42.676;23.262;2023-02-15T03:31:35;95788.88;;;3.32;100.00
12077;BME280;12420;42.676;23.262;2023-02-15T03:34:06;95737.56;;;3.05;100.00
12077;BME280;12420;42.676;23.262;2023-02-15T03:36:43;95755.25;;;3.13;100.00
12077;BME280;12420;42.676;23.262;2023-02-15T03:39:17;95785.81;;;3.21;100.00
12077;BME280;12420;42.676;23.262;2023-02-15T03:41:51;95785.75;;;3.52;100.00
12077;BME280;12420;42.676;23.262;2023-02-15T03:44:25;95788.34;;;3.46;100.00
12077;BME280;12420;42.676;23.262;2023-02-15T03:46:58;95787.53;;;2.96;100.00
12077;BME280;12420;42.676;23.262;2023-02-15T03:49:31;95786.78;;;3.45;100.00
12077;BME280;12420;42.676;23.262;2023-02-15T03:52:06;95787.16;;;3.57;100.00
12077;BME280;12420;42.676;23.262;2023-02-15T03:54:35;95782.28;;;3.61;100.00
12077;BME280;12420;42.676;23.262;2023-02-15T03:57:11;95789.28;;;3.71;100.00
12077;BME280;12420;42.676;23.262;2023-02-15T03:59:58;95783.53;;;3.78;100.00
12077;BME280;12420;42.676;23.262;2023-02-15T04:02:52;95787.34;;;3.72;100.00
12077;BME280;12420;42.676;23.262;2023-02-15T04:05:22;95838.94;;;3.82;100.00
12077;BME280;12420;42.676;23.262;2023-02-15T04:07:50;95822.81;;;3.84;100.00
12077;BME280;12420;42.676;23.262;2023-02-15T04:10:17;95789.59;;;3.64;100.00
12077;BME280;12420;42.676;23.262;2023-02-15T04:13:01;95786.44;;;3.84;100.00
12077;BME280;12420;42.676;23.262;2023-02-15T04:15:28;95814.28;;;3.91;100.00
12077;BME280;12420;42.676;23.262;2023-02-15T04:18:12;95801.66;;;3.85;100.00
12077;BME280;12420;42.676;23.262;2023-02-15T04:20:43;95794.50;;;3.87;100.00
12077;BME280;12420;42.676;23.262;2023-02-15T04:23:29;95817.97;;;3.98;100.00
12077;BME280;12420;42.676;23.262;2023-02-15T04:26:13;95808.22;;;3.97;100.00
12077;BME280;12420;42.676;23.262;2023-02-15T04:28:40;95815.78;;;3.83;100.00
12077;BME280;12420;42.676;23.262;2023-02-15T04:31:07;95820.06;;;3.94;100.00
12077;BME280;12420;42.676;23.262;2023-02-15T04:33:34;95822.53;;;4.01;100.00
12077;BME280;12420;42.676;23.262;2023-02-15T04:36:02;95834.84;;;3.96;100.00
12077;BME280;12420;42.676;23.262;2023-02-15T04:38:30;95831.97;;;4.09;100.00
12077;BME280;12420;42.676;23.262;2023-02-15T04:40:58;95831.69;;;4.16;100.00
12077;BME280;12420;42.676;23.262;2023-02-15T04:43:24;95828.19;;;4.16;100.00
12077;BME280;12420;42.676;23.262;2023-02-15T04:45:51;95825.44;;;4.16;100.00
12077;BME280;12420;42.676;23.262;2023-02-15T04:48:18;95838.53;;;4.30;100.00
12077;BME280;12420;42.676;23.262;2023-02-15T04:50:45;95823.63;;;4.31;100.00
12077;BME280;12420;42.676;23.262;2023-02-15T04:53:12;95830.00;;;4.37;100.00
12077;BME280;12420;42.676;23.262;2023-02-15T04:55:40;95801.22;;;4.14;100.00
12077;BME280;12420;42.676;23.262;2023-02-15T04:58:07;95829.56;;;4.29;100.00
12077;BME280;12420;42.676;23.262;2023-02-15T05:00:34;95811.41;;;3.95;100.00
12077;BME280;12420;42.676;23.262;2023-02-15T05:03:01;95791.31;;;3.98;100.00
12077;BME280;12420;42.676;23.262;2023-02-15T05:05:28;95844.19;;;4.45;100.00
12077;BME280;12420;42.676;23.262;2023-02-15T05:07:55;95844.63;;;4.16;100.00
12077;BME280;12420;42.676;23.262;2023-02-15T05:10:21;95847.34;;;4.25;100.00
12077;BME280;12420;42.676;23.262;2023-02-15T05:12:50;95840.38;;;4.33;100.00
12077;BME280;12420;42.676;23.262;2023-02-15T05:15:17;95670.56;;;3.00;100.00
12077;BME280;12420;42.676;23.262;2023-02-15T05:17:44;95843.56;;;4.13;100.00
12077;BME280;12420;42.676;23.262;2023-02-15T05:20:11;95789.31;;;3.80;100.00
12077;BME280;12420;42.676;23.262;2023-02-15T05:22:37;95827.97;;;3.91;100.00
12077;BME280;12420;42.676;23.262;2023-02-15T05:25:06;95820.38;;;3.96;100.00
12077;BME280;12420;42.676;23.262;2023-02-15T05:27:51;95866.69;;;4.21;100.00
12077;BME280;12420;42.676;23.262;2023-02-15T05:30:36;95860.59;;;4.17;100.00
12077;BME280;12420;42.676;23.262;2023-02-15T05:33:04;95809.28;;;3.90;100.00
12077;BME280;12420;42.676;23.262;2023-02-15T05:35:31;95847.69;;;4.18;100.00
12077;BME280;12420;42.676;23.262;2023-02-15T05:37:58;95867.63;;;4.37;100.00
12077;BME280;12420;42.676;23.262;2023-02-15T05:40:25;95826.50;;;4.09;100.00
12077;BME280;12420;42.676;23.262;2023-02-15T05:42:53;95877.38;;;4.47;100.00
12077;BME280;12420;42.676;23.262;2023-02-15T05:45:21;95883.50;;;4.51;100.00
12077;BME280;12420;42.676;23.262;2023-02-15T05:47:47;95885.91;;;4.49;100.00
12077;BME280;12420;42.676;23.262;2023-02-15T05:50:14;95881.94;;;4.50;100.00
12077;BME280;12420;42.676;23.262;2023-02-15T05:52:41;95882.56;;;4.54;100.00
12077;BME280;12420;42.676;23.262;2023-02-15T05:55:08;95877.09;;;4.54;100.00
12077;BME280;12420;42.676;23.262;2023-02-15T05:57:35;95820.09;;;4.12;100.00
12077;BME280;12420;42.676;23.262;2023-02-15T06:00:05;95807.72;;;3.70;100.00
12077;BME280;12420;42.676;23.262;2023-02-15T06:02:33;95872.66;;;4.47;100.00
12077;BME280;12420;42.676;23.262;2023-02-15T06:05:00;95830.16;;;4.15;100.00
12077;BME280;12420;42.676;23.262;2023-02-15T06:07:27;95884.41;;;4.57;100.00
12077;BME280;12420;42.676;23.262;2023-02-15T06:09:54;95842.63;;;4.16;100.00
12077;BME280;12420;42.676;23.262;2023-02-15T06:12:21;95856.06;;;4.23;100.00
12077;BME280;12420;42.676;23.262;2023-02-15T06:14:48;95885.88;;;4.21;100.00
12077;BME280;12420;42.676;23.262;2023-02-15T06:17:16;95880.09;;;4.10;100.00
12077;BME280;12420;42.676;23.262;2023-02-15T06:19:43;95888.16;;;4.13;100.00
12077;BME280;12420;42.676;23.262;2023-02-15T06:22:10;95874.22;;;3.80;100.00
12077;BME280;12420;42.676;23.262;2023-02-15T06:24:39;95895.31;;;4.11;100.00
12077;BME280;12420;42.676;23.262;2023-02-15T06:27:07;95900.63;;;4.14;100.00
12077;BME280;12420;42.676;23.262;2023-02-15T06:29:34;95890.09;;;4.04;100.00
12077;BME280;12420;42.676;23.262;2023-02-15T06:32:01;95893.19;;;4.15;100.00
12077;BME280;12420;42.676;23.262;2023-02-15T06:34:29;95834.38;;;3.88;100.00
12077;BME280;12420;42.676;23.262;2023-02-15T06:36:58;95839.41;;;3.90;100.00
12077;BME280;12420;42.676;23.262;2023-02-15T06:39:24;95892.00;;;4.25;100.00
12077;BME280;12420;42.676;23.262;2023-02-15T06:41:51;95859.22;;;3.54;100.00
12077;BME280;12420;42.676;23.262;2023-02-15T06:44:18;95882.19;;;4.06;100.00
12077;BME280;12420;42.676;23.262;2023-02-15T06:46:45;95881.03;;;4.25;100.00
12077;BME280;12420;42.676;23.262;2023-02-15T06:49:11;95892.25;;;4.00;100.00
12077;BME280;12420;42.676;23.262;2023-02-15T06:51:40;95867.06;;;3.83;100.00
12077;BME280;12420;42.676;23.262;2023-02-15T06:54:06;95889.16;;;3.88;100.00
12077;BME280;12420;42.676;23.262;2023-02-15T06:56:33;95883.06;;;3.94;100.00
12077;BME280;12420;42.676;23.262;2023-02-15T06:59:00;95874.22;;;3.80;100.00
12077;BME280;12420;42.676;23.262;2023-02-15T07:01:27;95891.41;;;3.72;100.00
12077;BME280;12420;42.676;23.262;2023-02-15T07:03:54;95868.56;;;3.75;100.00
12077;BME280;12420;42.676;23.262;2023-02-15T07:06:21;95871.00;;;3.73;100.00
12077;BME280;12420;42.676;23.262;2023-02-15T07:08:49;95845.34;;;3.48;100.00
12077;BME280;12420;42.676;23.262;2023-02-15T07:11:16;95879.69;;;3.80;100.00
12077;BME280;12420;42.676;23.262;2023-02-15T07:14:00;95875.22;;;3.64;100.00
12077;BME280;12420;42.676;23.262;2023-02-15T07:16:26;95898.09;;;3.80;100.00
12077;BME280;12420;42.676;23.262;2023-02-15T07:18:53;95940.00;;;3.89;100.00
12077;BME280;12420;42.676;23.262;2023-02-15T07:21:20;95872.13;;;3.84;100.00
12077;BME280;12420;42.676;23.262;2023-02-15T07:23:48;95897.41;;;3.98;100.00
12077;BME280;12420;42.676;23.262;2023-02-15T07:26:15;95894.06;;;4.12;100.00
12077;BME280;12420;42.676;23.262;2023-02-15T07:28:42;95895.75;;;4.00;100.00
12077;BME280;12420;42.676;23.262;2023-02-15T07:31:08;95901.41;;;4.15;100.00
12077;BME280;12420;42.676;23.262;2023-02-15T07:33:35;95866.63;;;3.84;100.00
12077;BME280;12420;42.676;23.262;2023-02-15T07:36:03;95894.53;;;4.20;99.48
12077;BME280;12420;42.676;23.262;2023-02-15T07:38:32;95888.59;;;4.03;100.00
12077;BME280;12420;42.676;23.262;2023-02-15T07:41:01;95890.97;;;3.91;100.00
12077;BME280;12420;42.676;23.262;2023-02-15T07:43:29;95855.81;;;3.81;100.00
12077;BME280;12420;42.676;23.262;2023-02-15T07:45:59;95863.66;;;4.10;99.70
12077;BME280;12420;42.676;23.262;2023-02-15T07:48:25;95889.25;;;4.34;97.86
12077;BME280;12420;42.676;23.262;2023-02-15T07:50:52;95890.78;;;4.45;98.53
12077;BME280;12420;42.676;23.262;2023-02-15T07:53:20;95890.19;;;4.41;97.78
12077;BME280;12420;42.676;23.262;2023-02-15T07:55:47;95896.53;;;4.19;98.69
12077;BME280;12420;42.676;23.262;2023-02-15T07:58:16;95881.91;;;4.22;99.76
12077;BME280;12420;42.676;23.262;2023-02-15T08:00:42;95879.03;;;4.35;99.48
12077;BME280;12420;42.676;23.262;2023-02-15T08:03:27;95862.81;;;3.82;99.54
12077;BME280;12420;42.676;23.262;2023-02-15T08:05:56;95833.75;;;3.75;100.00
12077;BME280;12420;42.676;23.262;2023-02-15T08:08:24;95902.59;;;4.14;99.63
12077;BME280;12420;42.676;23.262;2023-02-15T08:10:58;95887.34;;;3.95;100.00
12077;BME280;12420;42.676;23.262;2023-02-15T08:13:44;95906.16;;;3.74;100.00
12077;BME280;12420;42.676;23.262;2023-02-15T08:16:27;95892.63;;;3.80;100.00
12077;BME280;12420;42.676;23.262;2023-02-15T08:18:55;95870.25;;;3.81;100.00
12077;BME280;12420;42.676;23.262;2023-02-15T08:21:23;95835.47;;;3.51;100.00
12077;BME280;12420;42.676;23.262;2023-02-15T08:23:51;95898.63;;;4.06;100.00
12077;BME280;12420;42.676;23.262;2023-02-15T08:26:18;95896.69;;;4.16;100.00
12077;BME280;12420;42.676;23.262;2023-02-15T08:28:48;95869.13;;;4.10;100.00
12077;BME280;12420;42.676;23.262;2023-02-15T08:31:16;95894.72;;;4.25;97.19
12077;BME280;12420;42.676;23.262;2023-02-15T08:33:44;95855.19;;;3.77;97.15
12077;BME280;12420;42.676;23.262;2023-02-15T08:36:19;95905.34;;;4.14;98.03
12077;BME280;12420;42.676;23.262;2023-02-15T08:38:48;95897.88;;;4.05;98.44
12077;BME280;12420;42.676;23.262;2023-02-15T08:41:16;95899.34;;;3.88;99.84
12077;BME280;12420;42.676;23.262;2023-02-15T08:43:45;95892.84;;;3.95;99.81
12077;BME280;12420;42.676;23.262;2023-02-15T08:46:16;95892.41;;;4.05;98.75
12077;BME280;12420;42.676;23.262;2023-02-15T08:48:44;95894.97;;;4.00;98.74
12077;BME280;12420;42.676;23.262;2023-02-15T08:51:12;95904.59;;;4.13;98.90
12077;BME280;12420;42.676;23.262;2023-02-15T08:53:41;95904.50;;;4.45;97.31
12077;BME280;12420;42.676;23.262;2023-02-15T08:56:09;95923.03;;;4.22;96.50
12077;BME280;12420;42.676;23.262;2023-02-15T08:58:36;95884.72;;;4.41;96.63
12077;BME280;12420;42.676;23.262;2023-02-15T09:01:09;95901.91;;;4.41;94.13
12077;BME280;12420;42.676;23.262;2023-02-15T09:03:38;95908.13;;;4.23;95.01
12077;BME280;12420;42.676;23.262;2023-02-15T09:06:05;95862.47;;;3.70;95.55
12077;BME280;12420;42.676;23.262;2023-02-15T09:08:32;95872.13;;;3.94;95.77
12077;BME280;12420;42.676;23.262;2023-02-15T09:11:07;95860.72;;;3.95;96.08
12077;BME280;12420;42.676;23.262;2023-02-15T09:13:35;95873.41;;;4.29;95.43
12077;BME280;12420;42.676;23.262;2023-02-15T09:16:03;95886.66;;;4.31;95.63
12077;BME280;12420;42.676;23.262;2023-02-15T09:18:32;95895.50;;;4.63;95.65
12077;BME280;12420;42.676;23.262;2023-02-15T09:21:08;95872.63;;;4.20;96.06
12077;BME280;12420;42.676;23.262;2023-02-15T09:23:36;95897.66;;;4.59;95.87
12077;BME280;12420;42.676;23.262;2023-02-15T09:26:05;95862.16;;;4.37;96.17
12077;BME280;12420;42.676;23.262;2023-02-15T09:28:32;95867.78;;;4.33;95.25
12077;BME280;12420;42.676;23.262;2023-02-15T09:31:10;95896.72;;;4.52;96.20
12077;BME280;12420;42.676;23.262;2023-02-15T09:33:37;95901.63;;;4.48;95.89
12077;BME280;12420;42.676;23.262;2023-02-15T09:36:21;95896.25;;;4.45;96.27
12077;BME280;12420;42.676;23.262;2023-02-15T09:38:55;95904.19;;;4.52;95.25
12077;BME280;12420;42.676;23.262;2023-02-15T09:41:38;95894.31;;;4.54;94.66
12077;BME280;12420;42.676;23.262;2023-02-15T09:44:16;95901.31;;;4.65;94.77
12077;BME280;12420;42.676;23.262;2023-02-15T09:47:02;95876.94;;;4.39;95.27
12077;BME280;12420;42.676;23.262;2023-02-15T09:49:38;95871.59;;;4.54;94.09
12077;BME280;12420;42.676;23.262;2023-02-15T09:55:28;95903.91;;;4.68;93.54
12077;BME280;12420;42.676;23.262;2023-02-15T09:58:05;95889.56;;;4.83;93.83
12077;BME280;12420;42.676;23.262;2023-02-15T10:00:42;95889.13;;;4.66;94.00
12077;BME280;12420;42.676;23.262;2023-02-15T10:03:26;95893.22;;;4.70;94.13
12077;BME280;12420;42.676;23.262;2023-02-15T10:06:07;95865.50;;;4.59;92.92
12077;BME280;12420;42.676;23.262;2023-02-15T10:09:24;95883.03;;;4.43;95.06
12077;BME280;12420;42.676;23.262;2023-02-15T10:12:08;95890.50;;;4.70;95.03
12077;BME280;12420;42.676;23.262;2023-02-15T10:14:49;95889.56;;;4.92;93.92
12077;BME280;12420;42.676;23.262;2023-02-15T10:17:39;95886.03;;;5.19;91.50
12077;BME280;12420;42.676;23.262;2023-02-15T10:20:17;95870.78;;;5.09;90.64
12077;BME280;12420;42.676;23.262;2023-02-15T10:23:02;95881.31;;;5.10;90.99
12077;BME280;12420;42.676;23.262;2023-02-15T10:25:40;95850.84;;;4.99;89.95
12077;BME280;12420;42.676;23.262;2023-02-15T10:28:16;95883.13;;;5.22;88.11
12077;BME280;12420;42.676;23.262;2023-02-15T10:30:46;95893.81;;;5.11;88.37
12077;BME280;12420;42.676;23.262;2023-02-15T10:33:36;95872.97;;;4.77;90.66
12077;BME280;12420;42.676;23.262;2023-02-15T10:36:13;95844.19;;;4.54;90.72
12077;BME280;12420;42.676;23.262;2023-02-15T10:38:52;95868.28;;;4.68;91.17
12077;BME280;12420;42.676;23.262;2023-02-15T10:41:34;95865.66;;;4.83;89.96
12077;BME280;12420;42.676;23.262;2023-02-15T10:44:20;95863.38;;;4.82;91.53
12077;BME280;12420;42.676;23.262;2023-02-15T10:47:03;95811.56;;;4.84;89.82
12077;BME280;12420;42.676;23.262;2023-02-15T10:49:45;95859.38;;;5.10;90.63
12077;BME280;12420;42.676;23.262;2023-02-15T10:52:27;95881.31;;;5.19;89.32
12077;BME280;12420;42.676;23.262;2023-02-15T10:55:04;95860.09;;;5.20;88.18
12077;BME280;12420;42.676;23.262;2023-02-15T10:57:40;95868.50;;;5.16;88.26
12077;BME280;12420;42.676;23.262;2023-02-15T11:00:15;95859.38;;;5.01;89.50
12077;BME280;12420;42.676;23.262;2023-02-15T11:03:11;95841.13;;;4.89;90.05
12077;BME280;12420;42.676;23.262;2023-02-15T11:05:50;95747.03;;;4.46;89.15
12077;BME280;12420;42.676;23.262;2023-02-15T11:08:24;95857.25;;;4.96;89.77
12077;BME280;12420;42.676;23.262;2023-02-15T11:10:54;95856.22;;;4.75;89.42
12077;BME280;12420;42.676;23.262;2023-02-15T11:13:26;95849.22;;;4.74;90.16
12077;BME280;12420;42.676;23.262;2023-02-15T11:15:59;95838.84;;;4.69;90.60
12077;BME280;12420;42.676;23.262;2023-02-15T11:18:32;95857.25;;;4.96;90.10
12077;BME280;12420;42.676;23.262;2023-02-15T11:21:01;95858.03;;;4.96;89.89
12077;BME280;12420;42.676;23.262;2023-02-15T11:23:29;95805.47;;;4.70;88.92
12077;BME280;12420;42.676;23.262;2023-02-15T11:26:00;95847.38;;;4.89;87.51
12077;BME280;12420;42.676;23.262;2023-02-15T11:28:31;95854.06;;;4.88;88.91
12077;BME280;12420;42.676;23.262;2023-02-15T11:31:10;95851.16;;;4.92;88.84
12077;BME280;12420;42.676;23.262;2023-02-15T11:33:43;95821.69;;;5.11;87.04
12077;BME280;12420;42.676;23.262;2023-02-15T11:36:14;95847.22;;;5.44;84.82
12077;BME280;12420;42.676;23.262;2023-02-15T11:38:42;95841.34;;;5.70;84.76
12077;BME280;12420;42.676;23.262;2023-02-15T11:41:12;95839.97;;;5.65;83.38
12077;BME280;12420;42.676;23.262;2023-02-15T11:43:43;95847.28;;;5.69;81.65
12077;BME280;12420;42.676;23.262;2023-02-15T11:46:14;95842.22;;;5.76;81.98
12077;BME280;12420;42.676;23.262;2023-02-15T11:48:41;95832.03;;;5.68;82.42
12077;BME280;12420;42.676;23.262;2023-02-15T11:51:12;95810.75;;;5.44;82.90
12077;BME280;12420;42.676;23.262;2023-02-15T11:53:41;95800.88;;;5.37;82.64
12077;BME280;12420;42.676;23.262;2023-02-15T11:56:14;95819.72;;;5.54;84.38
12077;BME280;12420;42.676;23.262;2023-02-15T11:58:45;95794.28;;;5.44;82.82
12077;BME280;12420;42.676;23.262;2023-02-15T12:01:18;95775.91;;;5.26;82.70
12077;BME280;12420;42.676;23.262;2023-02-15T12:03:51;95792.03;;;5.42;83.56
12077;BME280;12420;42.676;23.262;2023-02-15T12:06:24;95809.53;;;5.45;83.95
12077;BME280;12420;42.676;23.262;2023-02-15T12:09:01;95782.44;;;5.29;84.80
12077;BME280;12420;42.676;23.262;2023-02-15T12:11:34;95748.31;;;5.30;84.32
12077;BME280;12420;42.676;23.262;2023-02-15T12:14:03;95786.84;;;5.69;84.21
12077;BME280;12420;42.676;23.262;2023-02-15T12:16:40;95783.34;;;5.68;83.80
12077;BME280;12420;42.676;23.262;2023-02-15T12:19:21;95796.81;;;5.57;83.28
12077;BME280;12420;42.676;23.262;2023-02-15T12:21:51;95777.88;;;5.35;84.12
12077;BME280;12420;42.676;23.262;2023-02-15T12:24:21;95766.28;;;5.31;84.44
12077;BME280;12420;42.676;23.262;2023-02-15T12:26:57;95776.50;;;5.30;86.10
12077;BME280;12420;42.676;23.262;2023-02-15T12:29:27;95789.41;;;5.48;85.49
12077;BME280;12420;42.676;23.262;2023-02-15T12:31:57;95737.31;;;5.30;86.06
12077;BME280;12420;42.676;23.262;2023-02-15T12:34:26;95784.00;;;5.87;84.92
12077;BME280;12420;42.676;23.262;2023-02-15T12:37:00;95785.56;;;5.79;83.22
12077;BME280;12420;42.676;23.262;2023-02-15T12:39:29;95776.69;;;5.84;84.69
12077;BME280;12420;42.676;23.262;2023-02-15T12:42:03;95769.84;;;5.79;83.87
12077;BME280;12420;42.676;23.262;2023-02-15T12:44:31;95763.28;;;5.77;85.29
12077;BME280;12420;42.676;23.262;2023-02-15T12:47:02;95770.84;;;5.91;82.62
12077;BME280;12420;42.676;23.262;2023-02-15T12:49:30;95754.66;;;5.93;82.69
12077;BME280;12420;42.676;23.262;2023-02-15T12:52:00;95733.31;;;5.88;82.40
12077;BME280;12420;42.676;23.262;2023-02-15T12:54:36;95750.44;;;5.83;82.35
12077;BME280;12420;42.676;23.262;2023-02-15T12:57:26;95750.06;;;5.90;83.22
12077;BME280;12420;42.676;23.262;2023-02-15T12:59:55;95736.50;;;5.96;82.57
12077;BME280;12420;42.676;23.262;2023-02-15T13:02:27;95746.00;;;6.09;82.28
12077;BME280;12420;42.676;23.262;2023-02-15T13:04:56;95765.88;;;6.04;82.43
12077;BME280;12420;42.676;23.262;2023-02-15T13:07:29;95766.59;;;6.14;82.11
12077;BME280;12420;42.676;23.262;2023-02-15T13:09:57;95763.91;;;6.05;82.71
12077;BME280;12420;42.676;23.262;2023-02-15T13:12:27;95737.66;;;6.04;81.77
12077;BME280;12420;42.676;23.262;2023-02-15T13:14:57;95716.69;;;5.82;81.63
12077;BME280;12420;42.676;23.262;2023-02-15T13:17:29;95738.88;;;5.79;82.43
12077;BME280;12420;42.676;23.262;2023-02-15T13:20:02;95741.81;;;5.99;82.48
12077;BME280;12420;42.676;23.262;2023-02-15T13:22:36;95742.00;;;6.11;81.56
12077;BME280;12420;42.676;23.262;2023-02-15T13:25:12;95700.91;;;5.92;81.86
12077;BME280;12420;42.676;23.262;2023-02-15T13:27:41;95749.50;;;6.10;81.96